sensor_id;sensor_type;location;lat;lon;timestamp;pressure;altitude;pressure_sealevel;temperature;humidity
31775;BME280;66189;49.000;11.640;2022-12-18T00:00:22;97056.31;;;-7.68;84.64
31775;BME280;66189;49.000;11.640;2022-12-18T00:02:23;97054.44;;;-7.60;84.04
31775;BME280;66189;49.000;11.640;2022-12-18T00:04:24;97059.81;;;-7.55;84.30
31775;BME280;66189;49.000;11.640;2022-12-18T00:06:27;97058.84;;;-7.61;83.99
31775;BME280;66189;49.000;11.640;2022-12-18T00:08:28;97071.06;;;-7.55;83.82
31775;BME280;66189;49.000;11.640;2022-12-18T00:10:28;97070.19;;;-7.48;83.53
31775;BME280;66189;49.000;11.640;2022-12-18T00:12:29;97072.38;;;-7.45;83.20
31775;BME280;66189;49.000;11.640;2022-12-18T00:14:30;97075.81;;;-7.45;83.42
31775;BME280;66189;49.000;11.640;2022-12-18T00:16:31;97084.66;;;-7.46;83.07
31775;BME280;66189;49.000;11.640;2022-12-18T00:18:33;97091.19;;;-7.55;83.88
31775;BME280;66189;49.000;11.640;2022-12-18T00:20:40;97080.63;;;-7.42;83.54
31775;BME280;66189;49.000;11.640;2022-12-18T00:22:40;97089.44;;;-7.36;83.39
31775;BME280;66189;49.000;11.640;2022-12-18T00:24:40;97096.34;;;-7.48;83.16
31775;BME280;66189;49.000;11.640;2022-12-18T00:26:41;97089.00;;;-7.58;84.03
31775;BME280;66189;49.000;11.640;2022-12-18T00:28:42;97089.75;;;-7.51;83.77
31775;BME280;66189;49.000;11.640;2022-12-18T00:30:42;97099.59;;;-7.53;84.24
31775;BME280;66189;49.000;11.640;2022-12-18T00:32:43;97096.19;;;-7.54;84.08
31775;BME280;66189;49.000;11.640;2022-12-18T00:34:43;97103.97;;;-7.47;84.23
31775;BME280;66189;49.000;11.640;2022-12-18T00:36:44;97101.75;;;-7.43;83.46
31775;BME280;66189;49.000;11.640;2022-12-18T00:38:46;97096.13;;;-7.47;84.13
31775;BME280;66189;49.000;11.640;2022-12-18T00:40:47;97094.91;;;-7.44;84.09
31775;BME280;66189;49.000;11.640;2022-12-18T00:42:47;97090.06;;;-7.41;83.74
31775;BME280;66189;49.000;11.640;2022-12-18T00:44:57;97092.88;;;-7.68;84.71
31775;BME280;66189;49.000;11.640;2022-12-18T00:46:57;97089.06;;;-7.65;85.42
31775;BME280;66189;49.000;11.640;2022-12-18T00:48:57;97079.88;;;-7.49;84.73
31775;BME280;66189;49.000;11.640;2022-12-18T00:50:58;97079.44;;;-7.46;84.63
31775;BME280;66189;49.000;11.640;2022-12-18T00:52:58;97088.50;;;-7.48;84.87
31775;BME280;66189;49.000;11.640;2022-12-18T00:54:59;97093.38;;;-7.52;84.73
31775;BME280;66189;49.000;11.640;2022-12-18T00:56:59;97089.47;;;-7.43;84.79
31775;BME280;66189;49.000;11.640;2022-12-18T00:58:59;97084.66;;;-7.46;84.74
31775;BME280;66189;49.000;11.640;2022-12-18T01:01:00;97077.41;;;-7.44;84.09
31775;BME280;66189;49.000;11.640;2022-12-18T01:03:00;97081.72;;;-7.56;84.40
31775;BME280;66189;49.000;11.640;2022-12-18T01:05:01;97067.88;;;-7.57;85.04
31775;BME280;66189;49.000;11.640;2022-12-18T01:07:02;97076.06;;;-7.53;84.88
31775;BME280;66189;49.000;11.640;2022-12-18T01:09:02;97083.13;;;-7.54;84.75
31775;BME280;66189;49.000;11.640;2022-12-18T01:11:08;97078.31;;;-7.57;84.42
31775;BME280;66189;49.000;11.640;2022-12-18T01:13:09;97089.91;;;-7.46;84.59
31775;BME280;66189;49.000;11.640;2022-12-18T01:15:10;97087.72;;;-7.49;84.27
31775;BME280;66189;49.000;11.640;2022-12-18T01:17:12;97091.19;;;-7.55;84.60
31775;BME280;66189;49.000;11.640;2022-12-18T01:19:12;97102.81;;;-7.51;84.31
31775;BME280;66189;49.000;11.640;2022-12-18T01:21:16;97102.41;;;-7.55;84.88
31775;BME280;66189;49.000;11.640;2022-12-18T01:23:17;97107.84;;;-7.56;84.46
31775;BME280;66189;49.000;11.640;2022-12-18T01:25:17;97118.31;;;-7.56;84.61
31775;BME280;66189;49.000;11.640;2022-12-18T01:27:18;97112.50;;;-7.58;84.87
31775;BME280;66189;49.000;11.640;2022-12-18T01:29:18;97120.84;;;-7.43;84.74
31775;BME280;66189;49.000;11.640;2022-12-18T01:31:24;97121.16;;;-7.33;83.83
31775;BME280;66189;49.000;11.640;2022-12-18T01:33:25;97120.47;;;-7.46;83.17
31775;BME280;66189;49.000;11.640;2022-12-18T01:35:25;97128.75;;;-7.56;84.92
31775;BME280;66189;49.000;11.640;2022-12-18T01:37:27;97127.75;;;-7.55;84.72
31775;BME280;66189;49.000;11.640;2022-12-18T01:39:28;97128.56;;;-7.55;84.18
31775;BME280;66189;49.000;11.640;2022-12-18T01:41:30;97132.28;;;-7.44;84.66
31775;BME280;66189;49.000;11.640;2022-12-18T01:43:53;97123.28;;;-7.48;84.87
31775;BME280;66189;49.000;11.640;2022-12-18T01:45:54;97129.75;;;-7.51;84.71
31775;BME280;66189;49.000;11.640;2022-12-18T01:48:01;97129.94;;;-7.52;84.59
31775;BME280;66189;49.000;11.640;2022-12-18T01:50:13;97127.13;;;-7.51;84.08
31775;BME280;66189;49.000;11.640;2022-12-18T01:52:14;97131.06;;;-7.41;84.56
31775;BME280;66189;49.000;11.640;2022-12-18T01:54:15;97129.28;;;-7.41;83.89
31775;BME280;66189;49.000;11.640;2022-12-18T01:56:18;97137.28;;;-7.36;83.81
31775;BME280;66189;49.000;11.640;2022-12-18T01:58:24;97139.31;;;-7.38;83.64
31775;BME280;66189;49.000;11.640;2022-12-18T02:00:28;97141.91;;;-7.38;83.87
31775;BME280;66189;49.000;11.640;2022-12-18T02:02:30;97138.97;;;-7.48;84.15
31775;BME280;66189;49.000;11.640;2022-12-18T02:04:31;97138.75;;;-7.46;84.24
31775;BME280;66189;49.000;11.640;2022-12-18T02:06:40;97145.28;;;-7.62;85.34
31775;BME280;66189;49.000;11.640;2022-12-18T02:08:54;97148.94;;;-7.63;85.89
31775;BME280;66189;49.000;11.640;2022-12-18T02:11:13;97150.66;;;-7.51;86.04
31775;BME280;66189;49.000;11.640;2022-12-18T02:13:50;97151.28;;;-7.55;86.13
31775;BME280;66189;49.000;11.640;2022-12-18T02:18:33;97142.59;;;-7.49;85.76
31775;BME280;66189;49.000;11.640;2022-12-18T02:20:45;97140.13;;;-7.44;86.42
31775;BME280;66189;49.000;11.640;2022-12-18T02:23:10;97147.78;;;-7.42;86.24
31775;BME280;66189;49.000;11.640;2022-12-18T02:27:18;97149.59;;;-7.43;86.27
31775;BME280;66189;49.000;11.640;2022-12-18T02:29:26;97147.41;;;-7.46;86.56
31775;BME280;66189;49.000;11.640;2022-12-18T02:31:35;97149.75;;;-7.38;86.55
31775;BME280;66189;49.000;11.640;2022-12-18T02:33:38;97146.13;;;-7.37;86.39
31775;BME280;66189;49.000;11.640;2022-12-18T02:35:42;97147.72;;;-7.36;86.34
31775;BME280;66189;49.000;11.640;2022-12-18T02:37:45;97148.69;;;-7.30;86.41
31775;BME280;66189;49.000;11.640;2022-12-18T02:39:48;97150.91;;;-7.34;86.53
31775;BME280;66189;49.000;11.640;2022-12-18T02:41:50;97151.34;;;-7.37;86.51
31775;BME280;66189;49.000;11.640;2022-12-18T02:43:58;97149.00;;;-7.45;86.95
31775;BME280;66189;49.000;11.640;2022-12-18T02:46:30;97150.59;;;-7.44;87.01
31775;BME280;66189;49.000;11.640;2022-12-18T02:48:34;97144.97;;;-7.41;87.18
31775;BME280;66189;49.000;11.640;2022-12-18T02:50:38;97142.50;;;-7.36;86.46
31775;BME280;66189;49.000;11.640;2022-12-18T02:57:50;97129.22;;;-7.34;86.58
31775;BME280;66189;49.000;11.640;2022-12-18T03:00:05;97131.28;;;-7.43;87.17
31775;BME280;66189;49.000;11.640;2022-12-18T03:02:26;97117.56;;;-7.38;87.40
31775;BME280;66189;49.000;11.640;2022-12-18T03:04:54;97125.28;;;-7.43;87.33
31775;BME280;66189;49.000;11.640;2022-12-18T03:07:00;97129.69;;;-7.44;87.63
31775;BME280;66189;49.000;11.640;2022-12-18T03:09:07;97129.16;;;-7.27;87.37
31775;BME280;66189;49.000;11.640;2022-12-18T03:11:11;97116.91;;;-7.27;87.37
31775;BME280;66189;49.000;11.640;2022-12-18T03:13:18;97120.31;;;-7.26;86.87
31775;BME280;66189;49.000;11.640;2022-12-18T03:15:28;97128.16;;;-7.26;87.31
31775;BME280;66189;49.000;11.640;2022-12-18T03:17:41;97139.09;;;-7.36;86.83
31775;BME280;66189;49.000;11.640;2022-12-18T03:19:45;97141.31;;;-7.40;87.69
31775;BME280;66189;49.000;11.640;2022-12-18T03:21:50;97135.66;;;-7.37;86.85
31775;BME280;66189;49.000;11.640;2022-12-18T03:23:52;97144.47;;;-7.31;87.42
31775;BME280;66189;49.000;11.640;2022-12-18T03:26:01;97142.88;;;-7.32;87.30
31775;BME280;66189;49.000;11.640;2022-12-18T03:28:07;97136.25;;;-7.35;87.19
31775;BME280;66189;49.000;11.640;2022-12-18T03:30:12;97139.66;;;-7.34;87.17
31775;BME280;66189;49.000;11.640;2022-12-18T03:34:46;97136.34;;;-7.23;86.94
31775;BME280;66189;49.000;11.640;2022-12-18T03:36:50;97131.28;;;-7.18;86.94
31775;BME280;66189;49.000;11.640;2022-12-18T03:38:52;97129.69;;;-7.19;87.13
31775;BME280;66189;49.000;11.640;2022-12-18T03:41:00;97125.84;;;-7.16;86.53
31775;BME280;66189;49.000;11.640;2022-12-18T03:43:30;97117.63;;;-7.20;86.16
31775;BME280;66189;49.000;11.640;2022-12-18T03:45:37;97108.19;;;-7.21;86.54
31775;BME280;66189;49.000;11.640;2022-12-18T03:50:22;97119.97;;;-7.37;87.17
31775;BME280;66189;49.000;11.640;2022-12-18T03:52:37;97129.06;;;-7.39;87.35
31775;BME280;66189;49.000;11.640;2022-12-18T03:54:42;97131.75;;;-7.27;87.64
31775;BME280;66189;49.000;11.640;2022-12-18T03:56:53;97133.66;;;-7.35;86.77
31775;BME280;66189;49.000;11.640;2022-12-18T03:58:58;97141.91;;;-7.38;87.60
31775;BME280;66189;49.000;11.640;2022-12-18T04:01:04;97150.56;;;-7.37;87.50
31775;BME280;66189;49.000;11.640;2022-12-18T04:03:07;97150.72;;;-7.32;87.42
31775;BME280;66189;49.000;11.640;2022-12-18T04:05:15;97144.13;;;-7.35;87.44
31775;BME280;66189;49.000;11.640;2022-12-18T04:07:18;97144.69;;;-7.33;87.80
31775;BME280;66189;49.000;11.640;2022-12-18T04:09:20;97149.13;;;-7.33;86.78
31775;BME280;66189;49.000;11.640;2022-12-18T04:11:21;97148.38;;;-7.40;87.13
31775;BME280;66189;49.000;11.640;2022-12-18T04:13:42;97154.56;;;-7.35;87.24
31775;BME280;66189;49.000;11.640;2022-12-18T04:15:50;97152.97;;;-7.36;87.67
31775;BME280;66189;49.000;11.640;2022-12-18T04:17:52;97156.97;;;-7.33;87.43
31775;BME280;66189;49.000;11.640;2022-12-18T04:19:56;97155.34;;;-7.34;87.38
31775;BME280;66189;49.000;11.640;2022-12-18T04:21:58;97168.16;;;-7.26;87.21
31775;BME280;66189;49.000;11.640;2022-12-18T04:23:59;97159.41;;;-7.38;86.94
31775;BME280;66189;49.000;11.640;2022-12-18T04:25:59;97154.38;;;-7.40;87.63
31775;BME280;66189;49.000;11.640;2022-12-18T04:28:17;97157.00;;;-7.40;87.51
31775;BME280;66189;49.000;11.640;2022-12-18T04:30:18;97163.41;;;-7.36;87.40
31775;BME280;66189;49.000;11.640;2022-12-18T04:32:18;97161.78;;;-7.30;87.42
31775;BME280;66189;49.000;11.640;2022-12-18T04:34:19;97169.81;;;-7.32;87.10
31775;BME280;66189;49.000;11.640;2022-12-18T04:36:26;97161.22;;;-7.39;87.46
31775;BME280;66189;49.000;11.640;2022-12-18T04:38:27;97155.50;;;-7.29;87.35
31775;BME280;66189;49.000;11.640;2022-12-18T04:40:37;97168.97;;;-7.25;87.60
31775;BME280;66189;49.000;11.640;2022-12-18T04:42:43;97171.41;;;-7.30;87.26
31775;BME280;66189;49.000;11.640;2022-12-18T04:44:43;97176.41;;;-7.29;87.36
31775;BME280;66189;49.000;11.640;2022-12-18T04:46:43;97188.81;;;-7.18;87.18
31775;BME280;66189;49.000;11.640;2022-12-18T04:48:45;97178.41;;;-7.24;86.31
31775;BME280;66189;49.000;11.640;2022-12-18T04:50:47;97178.03;;;-7.28;86.75
31775;BME280;66189;49.000;11.640;2022-12-18T04:52:48;97179.38;;;-7.19;86.87
31775;BME280;66189;49.000;11.640;2022-12-18T04:54:48;97183.00;;;-7.20;86.39
31775;BME280;66189;49.000;11.640;2022-12-18T04:56:49;97182.63;;;-7.23;86.83
31775;BME280;66189;49.000;11.640;2022-12-18T04:58:49;97177.47;;;-7.37;87.49
31775;BME280;66189;49.000;11.640;2022-12-18T05:00:50;97170.81;;;-7.33;87.12
31775;BME280;66189;49.000;11.640;2022-12-18T05:02:50;97177.34;;;-7.42;87.76
31775;BME280;66189;49.000;11.640;2022-12-18T05:04:50;97191.59;;;-7.38;87.31
31775;BME280;66189;49.000;11.640;2022-12-18T05:06:51;97191.97;;;-7.34;87.29
31775;BME280;66189;49.000;11.640;2022-12-18T05:08:51;97191.31;;;-7.29;87.46
31775;BME280;66189;49.000;11.640;2022-12-18T05:11:20;97194.84;;;-7.17;86.79
31775;BME280;66189;49.000;11.640;2022-12-18T05:13:20;97201.28;;;-7.20;86.45
31775;BME280;66189;49.000;11.640;2022-12-18T05:15:21;97190.63;;;-7.18;86.55
31775;BME280;66189;49.000;11.640;2022-12-18T05:17:21;97184.06;;;-7.27;86.91
31775;BME280;66189;49.000;11.640;2022-12-18T05:19:22;97190.63;;;-7.18;86.65
31775;BME280;66189;49.000;11.640;2022-12-18T05:21:22;97197.94;;;-7.27;86.90
31775;BME280;66189;49.000;11.640;2022-12-18T05:23:23;97188.63;;;-7.16;86.48
31775;BME280;66189;49.000;11.640;2022-12-18T05:25:24;97186.56;;;-7.14;86.86
31775;BME280;66189;49.000;11.640;2022-12-18T05:27:24;97199.28;;;-7.18;87.06
31775;BME280;66189;49.000;11.640;2022-12-18T05:29:25;97207.91;;;-7.17;86.94
31775;BME280;66189;49.000;11.640;2022-12-18T05:31:25;97196.69;;;-7.24;87.34
31775;BME280;66189;49.000;11.640;2022-12-18T05:33:29;97202.53;;;-7.22;87.39
31775;BME280;66189;49.000;11.640;2022-12-18T05:35:29;97203.69;;;-7.18;87.66
31775;BME280;66189;49.000;11.640;2022-12-18T05:37:30;97202.66;;;-7.10;87.26
31775;BME280;66189;49.000;11.640;2022-12-18T05:39:30;97210.09;;;-7.14;87.50
31775;BME280;66189;49.000;11.640;2022-12-18T05:41:30;97202.69;;;-7.17;87.54
31775;BME280;66189;49.000;11.640;2022-12-18T05:43:31;97199.44;;;-7.12;87.41
31775;BME280;66189;49.000;11.640;2022-12-18T05:45:31;97202.69;;;-7.17;87.63
31775;BME280;66189;49.000;11.640;2022-12-18T05:47:32;97203.66;;;-7.11;87.66
31775;BME280;66189;49.000;11.640;2022-12-18T05:49:32;97206.97;;;-6.98;87.66
31775;BME280;66189;49.000;11.640;2022-12-18T05:51:33;97206.63;;;-7.08;86.81
31775;BME280;66189;49.000;11.640;2022-12-18T05:53:34;97203.03;;;-7.07;87.79
31775;BME280;66189;49.000;11.640;2022-12-18T05:55:36;97208.50;;;-7.15;87.46
31775;BME280;66189;49.000;11.640;2022-12-18T05:57:37;97218.13;;;-7.09;88.09
31775;BME280;66189;49.000;11.640;2022-12-18T05:59:37;97208.25;;;-7.07;87.93
31775;BME280;66189;49.000;11.640;2022-12-18T06:01:38;97208.63;;;-7.03;87.93
31775;BME280;66189;49.000;11.640;2022-12-18T06:03:39;97206.41;;;-7.00;88.14
31775;BME280;66189;49.000;11.640;2022-12-18T06:05:42;97203.94;;;-6.94;87.61
31775;BME280;66189;49.000;11.640;2022-12-18T06:07:43;97206.91;;;-6.91;87.48
31775;BME280;66189;49.000;11.640;2022-12-18T06:09:43;97200.31;;;-6.93;87.29
31775;BME280;66189;49.000;11.640;2022-12-18T06:11:43;97208.16;;;-6.93;87.72
31775;BME280;66189;49.000;11.640;2022-12-18T06:13:44;97206.97;;;-6.98;87.60
31775;BME280;66189;49.000;11.640;2022-12-18T06:15:44;97206.66;;;-6.83;87.58
31775;BME280;66189;49.000;11.640;2022-12-18T06:17:45;97203.28;;;-6.90;87.91
31775;BME280;66189;49.000;11.640;2022-12-18T06:19:45;97207.88;;;-6.85;87.30
31775;BME280;66189;49.000;11.640;2022-12-18T06:21:45;97210.44;;;-6.79;86.73
31775;BME280;66189;49.000;11.640;2022-12-18T06:23:46;97204.47;;;-6.86;86.89
31775;BME280;66189;49.000;11.640;2022-12-18T06:25:46;97211.06;;;-6.83;87.49
31775;BME280;66189;49.000;11.640;2022-12-18T06:27:47;97215.28;;;-6.82;87.21
31775;BME280;66189;49.000;11.640;2022-12-18T06:29:48;97218.34;;;-6.85;87.24
31775;BME280;66189;49.000;11.640;2022-12-18T06:31:48;97227.03;;;-6.91;87.37
31775;BME280;66189;49.000;11.640;2022-12-18T06:33:48;97230.41;;;-6.84;87.51
31775;BME280;66189;49.000;11.640;2022-12-18T06:35:49;97237.44;;;-6.85;87.33
31775;BME280;66189;49.000;11.640;2022-12-18T06:37:49;97228.22;;;-6.87;87.70
31775;BME280;66189;49.000;11.640;2022-12-18T06:39:50;97234.25;;;-6.87;86.79
31775;BME280;66189;49.000;11.640;2022-12-18T06:41:50;97231.78;;;-7.07;87.18
31775;BME280;66189;49.000;11.640;2022-12-18T06:43:50;97241.41;;;-7.01;87.82
31775;BME280;66189;49.000;11.640;2022-12-18T06:45:51;97241.19;;;-6.99;87.96
31775;BME280;66189;49.000;11.640;2022-12-18T06:47:53;97242.63;;;-7.03;87.98
31775;BME280;66189;49.000;11.640;2022-12-18T06:49:53;97240.19;;;-6.98;87.98
31775;BME280;66189;49.000;11.640;2022-12-18T06:51:54;97241.75;;;-6.97;88.43
31775;BME280;66189;49.000;11.640;2022-12-18T06:53:54;97243.16;;;-6.94;88.44
31775;BME280;66189;49.000;11.640;2022-12-18T06:56:06;97238.28;;;-6.91;87.39
31775;BME280;66189;49.000;11.640;2022-12-18T06:58:07;97243.06;;;-6.81;87.95
31775;BME280;66189;49.000;11.640;2022-12-18T07:00:07;97238.25;;;-6.84;87.59
31775;BME280;66189;49.000;11.640;2022-12-18T07:02:11;97239.81;;;-6.76;87.27
31775;BME280;66189;49.000;11.640;2022-12-18T07:04:12;97234.50;;;-6.70;86.83
31775;BME280;66189;49.000;11.640;2022-12-18T07:06:14;97228.69;;;-6.72;86.91
31775;BME280;66189;49.000;11.640;2022-12-18T07:08:15;97238.59;;;-6.74;87.40
31775;BME280;66189;49.000;11.640;2022-12-18T07:10:15;97251.25;;;-6.71;87.19
31775;BME280;66189;49.000;11.640;2022-12-18T07:12:16;97258.66;;;-6.68;86.86
31775;BME280;66189;49.000;11.640;2022-12-18T07:14:16;97259.66;;;-6.69;86.68
31775;BME280;66189;49.000;11.640;2022-12-18T07:16:19;97251.81;;;-6.69;87.27
31775;BME280;66189;49.000;11.640;2022-12-18T07:18:19;97255.81;;;-6.66;86.96
31775;BME280;66189;49.000;11.640;2022-12-18T07:20:20;97258.81;;;-6.63;86.77
31775;BME280;66189;49.000;11.640;2022-12-18T07:22:20;97259.38;;;-6.61;86.79
31775;BME280;66189;49.000;11.640;2022-12-18T07:24:21;97256.19;;;-6.63;86.99
31775;BME280;66189;49.000;11.640;2022-12-18T07:26:22;97257.59;;;-6.60;86.92
31775;BME280;66189;49.000;11.640;2022-12-18T07:28:22;97258.81;;;-6.63;86.86
31775;BME280;66189;49.000;11.640;2022-12-18T07:30:23;97259.66;;;-6.69;86.44
31775;BME280;66189;49.000;11.640;2022-12-18T07:32:24;97252.59;;;-6.68;86.69
31775;BME280;66189;49.000;11.640;2022-12-18T07:34:24;97248.41;;;-6.69;87.08
31775;BME280;66189;49.000;11.640;2022-12-18T07:36:25;97257.19;;;-6.64;86.68
31775;BME280;66189;49.000;11.640;2022-12-18T07:38:25;97248.44;;;-6.76;87.13
31775;BME280;66189;49.000;11.640;2022-12-18T07:40:26;97246.25;;;-6.79;87.33
31775;BME280;66189;49.000;11.640;2022-12-18T07:42:26;97243.06;;;-6.81;86.80
31775;BME280;66189;49.000;11.640;2022-12-18T07:44:33;97240.88;;;-6.84;86.71
31775;BME280;66189;49.000;11.640;2022-12-18T07:46:33;97241.03;;;-6.79;87.05
31775;BME280;66189;49.000;11.640;2022-12-18T07:48:34;97252.03;;;-6.70;87.03
31775;BME280;66189;49.000;11.640;2022-12-18T07:50:34;97242.88;;;-6.86;87.18
31775;BME280;66189;49.000;11.640;2022-12-18T07:52:35;97250.53;;;-6.85;86.82
31775;BME280;66189;49.000;11.640;2022-12-18T07:54:35;97248.44;;;-6.76;87.38
31775;BME280;66189;49.000;11.640;2022-12-18T07:56:35;97250.31;;;-6.83;87.09
31775;BME280;66189;49.000;11.640;2022-12-18T07:58:37;97253.56;;;-6.88;86.84
31775;BME280;66189;49.000;11.640;2022-12-18T08:00:37;97245.13;;;-6.90;87.14
31775;BME280;66189;49.000;11.640;2022-12-18T08:02:38;97262.59;;;-6.84;86.77
31775;BME280;66189;49.000;11.640;2022-12-18T08:04:38;97260.03;;;-6.90;87.13
31775;BME280;66189;49.000;11.640;2022-12-18T08:06:38;97265.63;;;-6.87;86.52
31775;BME280;66189;49.000;11.640;2022-12-18T08:08:39;97269.25;;;-6.88;86.46
31775;BME280;66189;49.000;11.640;2022-12-18T08:10:41;97261.59;;;-6.83;86.13
31775;BME280;66189;49.000;11.640;2022-12-18T08:12:41;97270.09;;;-6.87;86.95
31775;BME280;66189;49.000;11.640;2022-12-18T08:14:42;97273.84;;;-6.83;86.89
31775;BME280;66189;49.000;11.640;2022-12-18T08:16:42;97281.31;;;-6.80;86.45
31775;BME280;66189;49.000;11.640;2022-12-18T08:18:43;97277.97;;;-6.69;86.66
31775;BME280;66189;49.000;11.640;2022-12-18T08:20:43;97289.88;;;-6.73;86.06
31775;BME280;66189;49.000;11.640;2022-12-18T08:22:44;97298.13;;;-6.69;86.27
31775;BME280;66189;49.000;11.640;2022-12-18T08:24:44;97294.97;;;-6.78;86.02
31775;BME280;66189;49.000;11.640;2022-12-18T08:26:45;97303.56;;;-6.71;85.95
31775;BME280;66189;49.000;11.640;2022-12-18T08:28:45;97300.09;;;-6.65;86.10
31775;BME280;66189;49.000;11.640;2022-12-18T08:30:46;97302.50;;;-6.63;85.71
31775;BME280;66189;49.000;11.640;2022-12-18T08:32:46;97307.13;;;-6.65;85.66
31775;BME280;66189;49.000;11.640;2022-12-18T08:34:46;97293.47;;;-6.67;86.28
31775;BME280;66189;49.000;11.640;2022-12-18T08:36:47;97303.16;;;-6.68;85.85
31775;BME280;66189;49.000;11.640;2022-12-18T08:38:47;97300.13;;;-6.71;85.41
31775;BME280;66189;49.000;11.640;2022-12-18T08:40:48;97303.38;;;-6.69;85.35
31775;BME280;66189;49.000;11.640;2022-12-18T08:42:48;97307.34;;;-6.67;85.62
31775;BME280;66189;49.000;11.640;2022-12-18T08:45:07;97307.78;;;-6.70;85.40
31775;BME280;66189;49.000;11.640;2022-12-18T08:47:08;97308.53;;;-6.63;84.68
31775;BME280;66189;49.000;11.640;2022-12-18T08:49:10;97313.63;;;-6.68;85.50
31775;BME280;66189;49.000;11.640;2022-12-18T08:51:11;97317.59;;;-6.65;84.42
31775;BME280;66189;49.000;11.640;2022-12-18T08:53:11;97320.63;;;-6.62;84.76
31775;BME280;66189;49.000;11.640;2022-12-18T08:55:12;97324.25;;;-6.63;85.45
31775;BME280;66189;49.000;11.640;2022-12-18T08:57:12;97314.56;;;-6.62;84.99
31775;BME280;66189;49.000;11.640;2022-12-18T08:59:13;97320.19;;;-6.58;85.18
31775;BME280;66189;49.000;11.640;2022-12-18T09:01:13;97320.19;;;-6.58;85.10
31775;BME280;66189;49.000;11.640;2022-12-18T09:03:18;97318.00;;;-6.62;85.02
31775;BME280;66189;49.000;11.640;2022-12-18T09:05:19;97319.16;;;-6.57;85.41
31775;BME280;66189;49.000;11.640;2022-12-18T09:07:19;97308.91;;;-6.59;85.75
31775;BME280;66189;49.000;11.640;2022-12-18T09:09:20;97306.25;;;-6.52;85.06
31775;BME280;66189;49.000;11.640;2022-12-18T09:11:26;97307.25;;;-6.53;85.31
31775;BME280;66189;49.000;11.640;2022-12-18T09:13:26;97313.28;;;-6.53;85.43
31775;BME280;66189;49.000;11.640;2022-12-18T09:15:27;97297.56;;;-6.53;85.90
31775;BME280;66189;49.000;11.640;2022-12-18T09:17:27;97308.78;;;-6.46;85.43
31775;BME280;66189;49.000;11.640;2022-12-18T09:19:28;97309.88;;;-6.28;85.07
31775;BME280;66189;49.000;11.640;2022-12-18T09:21:31;97311.09;;;-6.31;84.95
31775;BME280;66189;49.000;11.640;2022-12-18T09:23:32;97304.88;;;-6.36;85.01
31775;BME280;66189;49.000;11.640;2022-12-18T09:25:33;97299.59;;;-6.30;85.16
31775;BME280;66189;49.000;11.640;2022-12-18T09:27:35;97302.59;;;-6.26;84.91
31775;BME280;66189;49.000;11.640;2022-12-18T09:29:36;97296.16;;;-6.30;85.06
31775;BME280;66189;49.000;11.640;2022-12-18T09:31:38;97296.69;;;-6.21;84.86
31775;BME280;66189;49.000;11.640;2022-12-18T09:33:38;97297.69;;;-6.22;84.48
31775;BME280;66189;49.000;11.640;2022-12-18T09:35:40;97295.81;;;-6.34;84.24
31775;BME280;66189;49.000;11.640;2022-12-18T09:37:41;97301.56;;;-6.25;84.93
31775;BME280;66189;49.000;11.640;2022-12-18T09:39:42;97304.13;;;-6.18;84.75
31775;BME280;66189;49.000;11.640;2022-12-18T09:43:52;97306.75;;;-6.18;85.17
31775;BME280;66189;49.000;11.640;2022-12-18T09:45:59;97303.81;;;-6.29;84.22
31775;BME280;66189;49.000;11.640;2022-12-18T09:48:01;97304.41;;;-6.27;84.21
31775;BME280;66189;49.000;11.640;2022-12-18T09:50:06;97297.69;;;-6.22;84.43
31775;BME280;66189;49.000;11.640;2022-12-18T09:52:21;97286.94;;;-6.33;83.52
31775;BME280;66189;49.000;11.640;2022-12-18T09:54:33;97293.63;;;-6.37;83.90
31775;BME280;66189;49.000;11.640;2022-12-18T09:56:40;97281.41;;;-6.25;84.23
31775;BME280;66189;49.000;11.640;2022-12-18T09:58:51;97283.06;;;-6.30;83.59
31775;BME280;66189;49.000;11.640;2022-12-18T10:00:54;97280.38;;;-6.42;84.08
31775;BME280;66189;49.000;11.640;2022-12-18T10:03:09;97271.66;;;-6.36;84.29
31775;BME280;66189;49.000;11.640;2022-12-18T10:05:16;97281.84;;;-6.28;84.27
31775;BME280;66189;49.000;11.640;2022-12-18T10:07:27;97276.63;;;-6.53;83.81
31775;BME280;66189;49.000;11.640;2022-12-18T10:09:37;97278.13;;;-6.38;84.23
31775;BME280;66189;49.000;11.640;2022-12-18T10:13:52;97280.22;;;-6.29;84.08
31775;BME280;66189;49.000;11.640;2022-12-18T10:16:03;97284.09;;;-6.31;83.80
31775;BME280;66189;49.000;11.640;2022-12-18T10:18:46;97274.63;;;-6.32;83.71
31775;BME280;66189;49.000;11.640;2022-12-18T10:20:42;97275.22;;;-6.30;84.18
31775;BME280;66189;49.000;11.640;2022-12-18T10:23:14;97271.66;;;-6.36;83.84
31775;BME280;66189;49.000;11.640;2022-12-18T10:27:27;97277.69;;;-6.35;83.89
31775;BME280;66189;49.000;11.640;2022-12-18T10:29:27;97274.44;;;-6.31;83.21
31775;BME280;66189;49.000;11.640;2022-12-18T10:31:28;97272.09;;;-6.39;83.55
31775;BME280;66189;49.000;11.640;2022-12-18T10:33:30;97278.66;;;-6.30;83.84
31775;BME280;66189;49.000;11.640;2022-12-18T10:35:32;97271.69;;;-6.17;83.39
31775;BME280;66189;49.000;11.640;2022-12-18T10:37:32;97267.13;;;-6.29;83.71
31775;BME280;66189;49.000;11.640;2022-12-18T10:39:32;97270.66;;;-6.16;84.33
31775;BME280;66189;49.000;11.640;2022-12-18T10:41:33;97267.44;;;-6.18;84.26
31775;BME280;66189;49.000;11.640;2022-12-18T10:43:37;97265.88;;;-6.19;84.88
31775;BME280;66189;49.000;11.640;2022-12-18T10:45:39;97268.09;;;-6.23;83.61
31775;BME280;66189;49.000;11.640;2022-12-18T10:47:49;97266.13;;;-6.09;84.29
31775;BME280;66189;49.000;11.640;2022-12-18T10:49:52;97256.63;;;-6.03;83.47
31775;BME280;66189;49.000;11.640;2022-12-18T10:52:15;97258.28;;;-6.09;83.88
31775;BME280;66189;49.000;11.640;2022-12-18T10:54:23;97245.84;;;-6.14;83.96
31775;BME280;66189;49.000;11.640;2022-12-18T10:56:27;97243.38;;;-6.09;83.81
31775;BME280;66189;49.000;11.640;2022-12-18T10:58:36;97257.56;;;-5.98;83.77
31775;BME280;66189;49.000;11.640;2022-12-18T11:00:37;97258.88;;;-6.07;83.34
31775;BME280;66189;49.000;11.640;2022-12-18T11:02:38;97262.06;;;-6.05;83.25
31775;BME280;66189;49.000;11.640;2022-12-18T11:04:50;97255.97;;;-5.99;83.77
31775;BME280;66189;49.000;11.640;2022-12-18T11:06:55;97262.34;;;-5.95;83.78